Time;durP1;ratioP1;P1;durP2;ratioP2;P2;SDS_P1;SDS_P2;PMS_P1;PMS_P2;Temp;Humidity;BMP_temperature;BMP_pressure;BME280_temperature;BME280_humidity;BME280_pressure;Samples;Min_cycle;Max_cycle;Signal;HPM_P1;HPM_P2
2021/12/03 00:01:27;;;;;;;94.97;65.85;;;27.70;99.90;;;;;;4982213;28;20109;-69
2021/12/03 00:03:55;;;;;;;86.28;55.13;;;27.70;99.90;;;;;;4993919;28;20046;-68
2021/12/03 00:06:22;;;;;;;110.68;78.53;;;27.80;99.90;;;;;;4993043;28;20034;-70
2021/12/03 00:08:49;;;;;;;89.63;60.92;;;27.80;99.90;;;;;;4993657;28;20034;-68
2021/12/03 00:11:16;;;;;;;147.35;104.10;;;27.80;99.90;;;;;;4993773;28;20026;-67
2021/12/03 00:13:43;;;;;;;194.38;132.90;;;27.80;99.90;;;;;;4993338;28;20077;-69
2021/12/03 00:16:12;;;;;;;97.85;66.68;;;27.90;99.90;;;;;;4992784;28;20109;-69
2021/12/03 00:18:40;;;;;;;53.25;39.88;;;27.90;99.90;;;;;;4976433;28;20054;-65
2021/12/03 00:21:08;;;;;;;66.60;45.85;;;27.90;99.90;;;;;;4994335;28;20041;-66
2021/12/03 00:23:35;;;;;;;47.80;35.70;;;28.00;99.90;;;;;;4982865;28;20027;-66
2021/12/03 00:26:03;;;;;;;59.53;45.88;;;28.00;99.90;;;;;;4978484;28;20043;-67
2021/12/03 00:28:30;;;;;;;80.40;57.20;;;28.00;99.90;;;;;;4994228;28;20035;-67
2021/12/03 00:30:57;;;;;;;69.22;46.63;;;28.00;99.90;;;;;;4996148;28;20065;-70
2021/12/03 00:33:25;;;;;;;73.70;49.35;;;28.00;99.90;;;;;;4997509;28;20053;-69
2021/12/03 00:35:53;;;;;;;70.97;47.83;;;28.00;99.90;;;;;;4997355;28;20038;-67
2021/12/03 00:38:20;;;;;;;64.47;45.03;;;28.10;99.90;;;;;;4996100;28;20077;-68
2021/12/03 00:40:47;;;;;;;72.88;50.55;;;28.10;99.90;;;;;;4996343;28;20015;-68
2021/12/03 00:43:14;;;;;;;72.65;49.47;;;28.10;99.90;;;;;;4999477;28;20050;-65
2021/12/03 00:45:43;;;;;;;61.42;40.67;;;28.10;99.90;;;;;;5004731;28;20030;-69
2021/12/03 00:48:10;;;;;;;57.38;37.03;;;28.20;99.90;;;;;;5005170;28;20018;-68
2021/12/03 00:50:37;;;;;;;48.35;35.38;;;28.10;99.90;;;;;;5001322;28;20041;-68
2021/12/03 00:53:04;;;;;;;38.35;27.25;;;28.20;99.90;;;;;;5011982;28;20519;-69
2021/12/03 00:55:32;;;;;;;35.25;24.85;;;28.20;99.90;;;;;;5001767;28;20037;-68
2021/12/03 00:57:59;;;;;;;29.58;20.85;;;28.20;99.90;;;;;;5006428;28;20026;-69
2021/12/03 01:00:30;;;;;;;32.42;21.73;;;28.20;99.90;;;;;;4997265;28;20031;-69
2021/12/03 01:02:59;;;;;;;38.47;23.97;;;28.30;99.90;;;;;;4997264;28;20029;-68
2021/12/03 01:05:27;;;;;;;30.13;19.13;;;28.30;99.90;;;;;;5013425;28;20286;-67
2021/12/03 01:07:54;;;;;;;26.52;17.55;;;28.40;99.90;;;;;;5016379;28;20032;-66
2021/12/03 01:10:21;;;;;;;28.67;17.40;;;28.50;99.90;;;;;;5007477;28;20037;-65
2021/12/03 01:12:48;;;;;;;31.20;17.67;;;28.50;99.90;;;;;;4978040;28;20093;-66
2021/12/03 01:15:20;;;;;;;22.33;13.38;;;28.60;99.90;;;;;;4977119;28;20059;-65
2021/12/03 01:17:47;;;;;;;18.67;12.77;;;28.60;99.90;;;;;;4977067;28;20097;-65
2021/12/03 01:20:16;;;;;;;20.10;13.65;;;28.60;99.90;;;;;;4977144;28;20035;-69
2021/12/03 01:22:46;;;;;;;23.50;15.00;;;28.70;99.90;;;;;;4976876;28;20023;-66
2021/12/03 01:25:15;;;;;;;25.48;13.77;;;28.90;99.90;;;;;;4976923;28;20414;-66
2021/12/03 01:27:43;;;;;;;23.77;14.65;;;29.00;99.90;;;;;;4978184;28;20109;-65
2021/12/03 01:30:13;;;;;;;21.58;14.05;;;29.00;99.90;;;;;;4979118;28;20031;-65
2021/12/03 01:32:40;;;;;;;21.60;14.00;;;29.10;99.90;;;;;;4975871;28;20038;-66
2021/12/03 01:35:08;;;;;;;28.02;18.63;;;29.20;99.90;;;;;;4976740;28;20035;-68
2021/12/03 01:37:36;;;;;;;42.28;18.67;;;29.30;99.90;;;;;;4976591;28;20469;-68
2021/12/03 01:40:04;;;;;;;18.42;12.35;;;29.20;99.90;;;;;;4975080;28;20406;-68
2021/12/03 01:42:31;;;;;;;24.02;13.07;;;29.10;99.90;;;;;;4976132;28;20482;-67
2021/12/03 01:44:58;;;;;;;19.48;13.15;;;29.10;99.90;;;;;;4992451;28;20022;-68
2021/12/03 01:47:24;;;;;;;20.90;13.07;;;29.10;99.90;;;;;;4995564;28;20513;-70
2021/12/03 01:49:51;;;;;;;21.80;13.82;;;29.10;99.90;;;;;;4994165;28;20064;-69
2021/12/03 01:52:18;;;;;;;20.98;13.70;;;29.20;99.90;;;;;;4995835;28;20548;-67
2021/12/03 01:54:44;;;;;;;23.00;13.35;;;29.30;99.90;;;;;;4994141;28;20116;-67
2021/12/03 01:57:11;;;;;;;24.45;16.35;;;29.40;99.90;;;;;;4979056;28;20044;-66
2021/12/03 01:59:38;;;;;;;23.50;14.75;;;29.50;99.90;;;;;;4977960;28;20031;-66
2021/12/03 02:02:05;;;;;;;24.02;14.85;;;29.50;99.90;;;;;;4990819;28;20424;-66
2021/12/03 02:04:32;;;;;;;39.47;24.17;;;29.50;99.90;;;;;;4988909;28;20117;-67
2021/12/03 02:06:59;;;;;;;25.70;15.45;;;29.50;99.90;;;;;;4995773;28;20495;-67
2021/12/03 02:09:25;;;;;;;29.30;17.00;;;29.60;99.90;;;;;;4992808;28;20039;-66
2021/12/03 02:11:52;;;;;;;32.58;20.63;;;29.70;99.90;;;;;;4997013;28;20030;-67
2021/12/03 02:14:20;;;;;;;22.13;15.55;;;29.70;99.90;;;;;;5012020;28;20477;-66
2021/12/03 02:16:47;;;;;;;24.60;14.88;;;29.70;99.90;;;;;;5013367;28;20421;-68
2021/12/03 02:19:14;;;;;;;25.70;17.02;;;29.80;99.90;;;;;;5007148;28;20114;-67
2021/12/03 02:21:41;;;;;;;26.83;17.40;;;29.90;99.90;;;;;;4999429;28;20109;-66
2021/12/03 02:24:09;;;;;;;19.05;11.02;;;30.00;99.90;;;;;;5009261;28;20065;-66
2021/12/03 02:26:36;;;;;;;20.45;14.10;;;30.10;99.90;;;;;;5005389;28;20038;-66
2021/12/03 02:29:04;;;;;;;23.02;12.48;;;30.30;99.90;;;;;;5002747;28;20034;-66
2021/12/03 02:31:30;;;;;;;21.30;14.13;;;30.30;99.90;;;;;;5012145;28;20124;-67
2021/12/03 02:33:57;;;;;;;45.17;31.02;;;30.30;99.90;;;;;;5011371;28;20041;-67
2021/12/03 02:36:25;;;;;;;29.88;21.05;;;30.20;99.90;;;;;;5000810;28;20106;-69
2021/12/03 02:38:51;;;;;;;40.58;23.42;;;30.30;99.90;;;;;;4995070;28;20058;-67
2021/12/03 02:41:18;;;;;;;19.80;12.20;;;30.40;99.90;;;;;;5004710;28;20113;-67
2021/12/03 02:43:45;;;;;;;59.15;35.45;;;30.40;99.90;;;;;;5014063;28;20022;-67
2021/12/03 02:46:12;;;;;;;54.53;32.38;;;30.30;99.90;;;;;;5013368;28;20477;-67
2021/12/03 02:48:39;;;;;;;34.58;21.65;;;30.20;99.90;;;;;;5011332;28;20022;-69
2021/12/03 02:51:08;;;;;;;42.50;27.55;;;30.10;99.90;;;;;;5010584;28;20493;-67
2021/12/03 02:53:37;;;;;;;31.67;16.38;;;30.30;99.90;;;;;;5012858;28;20164;-67
2021/12/03 02:56:06;;;;;;;40.67;19.33;;;30.40;99.90;;;;;;5013132;28;20034;-68
2021/12/03 02:58:32;;;;;;;28.63;16.70;;;30.50;99.90;;;;;;5005035;28;20021;-68
2021/12/03 03:01:01;;;;;;;30.13;13.93;;;30.50;99.90;;;;;;5010248;28;20033;-68
2021/12/03 03:03:28;;;;;;;37.65;20.90;;;30.60;99.90;;;;;;5012885;28;20385;-68
2021/12/03 03:05:57;;;;;;;31.75;18.52;;;30.60;99.90;;;;;;5012522;28;20026;-67
2021/12/03 03:08:25;;;;;;;20.95;12.18;;;30.60;99.90;;;;;;5004331;28;20038;-67
2021/12/03 03:10:54;;;;;;;31.83;17.73;;;30.60;99.90;;;;;;5013529;28;20029;-68
2021/12/03 03:13:21;;;;;;;28.40;14.75;;;30.60;99.90;;;;;;5007623;28;20050;-68
2021/12/03 03:15:48;;;;;;;34.63;17.83;;;30.60;99.90;;;;;;5003360;28;20046;-67
2021/12/03 03:18:23;;;;;;;37.88;23.17;;;30.50;99.90;;;;;;5013103;28;20068;-68
2021/12/03 03:20:52;;;;;;;33.05;14.50;;;30.50;99.90;;;;;;5011552;28;20026;-66
2021/12/03 03:23:20;;;;;;;41.42;24.92;;;30.50;99.90;;;;;;5007656;28;20024;-67
2021/12/03 03:25:49;;;;;;;27.15;17.27;;;30.50;99.90;;;;;;5013172;28;20622;-67
2021/12/03 03:28:17;;;;;;;27.13;21.67;;;30.70;99.90;;;;;;5010551;28;20080;-70
2021/12/03 03:30:45;;;;;;;31.45;12.65;;;30.80;99.90;;;;;;5069791;22;20061;-68
2021/12/03 03:33:13;;;;;;;28.88;12.57;;;30.80;99.90;;;;;;5042035;28;20487;-68
2021/12/03 03:35:40;;;;;;;25.13;11.05;;;30.90;99.90;;;;;;5041418;28;20043;-68
2021/12/03 03:38:08;;;;;;;19.02;10.07;;;31.00;99.90;;;;;;5040232;28;20029;-67
2021/12/03 03:40:35;;;;;;;16.73;11.45;;;31.10;99.90;;;;;;5040175;28;20026;-66
2021/12/03 03:43:04;;;;;;;21.80;12.50;;;31.10;99.90;;;;;;5042402;28;20044;-67
2021/12/03 03:45:32;;;;;;;19.52;9.95;;;31.20;99.90;;;;;;5033617;28;20030;-66
2021/12/03 03:47:59;;;;;;;18.35;10.18;;;31.20;99.90;;;;;;5037479;28;20037;-67
2021/12/03 03:50:27;;;;;;;14.95;9.60;;;31.20;99.90;;;;;;5034901;28;20082;-66
2021/12/03 03:52:55;;;;;;;17.70;10.07;;;31.10;99.90;;;;;;5037406;28;20531;-67
2021/12/03 03:55:23;;;;;;;20.45;10.85;;;31.10;99.90;;;;;;5037016;28;20033;-66
2021/12/03 03:57:52;;;;;;;20.67;11.30;;;31.10;99.90;;;;;;5043707;28;20084;-67
2021/12/03 04:00:25;;;;;;;22.25;14.32;;;31.30;99.90;;;;;;5047569;28;20016;-67
2021/12/03 04:02:51;;;;;;;22.38;14.15;;;31.50;99.90;;;;;;5047173;28;20418;-66
2021/12/03 04:05:18;;;;;;;20.05;11.98;;;31.50;99.90;;;;;;5044969;28;20044;-67
2021/12/03 04:07:45;;;;;;;21.92;12.70;;;31.50;99.90;;;;;;5024054;28;20030;-66
2021/12/03 04:10:12;;;;;;;30.33;12.60;;;31.30;99.90;;;;;;5021729;28;20037;-66
2021/12/03 04:12:39;;;;;;;25.30;11.43;;;31.30;99.90;;;;;;5023028;28;20506;-67
2021/12/03 04:15:09;;;;;;;25.15;16.17;;;31.30;99.90;;;;;;5026712;28;20075;-66
2021/12/03 04:17:36;;;;;;;26.90;18.40;;;31.40;99.90;;;;;;5028394;28;20049;-67
2021/12/03 04:20:05;;;;;;;21.67;12.27;;;31.60;99.90;;;;;;5027812;28;20530;-68
2021/12/03 04:22:34;;;;;;;30.75;21.13;;;31.60;99.90;;;;;;5027343;28;20033;-66
2021/12/03 04:25:03;;;;;;;25.55;18.60;;;31.60;99.30;;;;;;5047300;22;20439;-65
2021/12/03 04:27:30;;;;;;;17.95;9.38;;;31.70;98.90;;;;;;5047024;28;20040;-66
2021/12/03 04:29:56;;;;;;;17.23;11.45;;;31.80;97.40;;;;;;5048247;28;20032;-64
2021/12/03 04:32:25;;;;;;;15.98;11.57;;;31.80;98.00;;;;;;5048819;28;20032;-65
2021/12/03 04:34:53;;;;;;;18.42;12.00;;;31.90;97.10;;;;;;5048503;28;20168;-68
2021/12/03 04:37:21;;;;;;;18.27;10.48;;;32.00;96.80;;;;;;5043708;28;20075;-66
2021/12/03 04:39:48;;;;;;;25.73;12.18;;;32.20;96.10;;;;;;5043180;28;20052;-65
2021/12/03 04:42:15;;;;;;;16.33;9.43;;;32.20;93.60;;;;;;5043979;28;20049;-64
2021/12/03 04:44:42;;;;;;;25.27;11.75;;;32.30;93.10;;;;;;5039061;28;20107;-65
2021/12/03 04:47:08;;;;;;;13.90;9.90;;;32.50;91.90;;;;;;5046839;28;20030;-63
2021/12/03 04:49:35;;;;;;;21.73;12.35;;;32.50;92.60;;;;;;5047005;28;20029;-64
2021/12/03 04:52:03;;;;;;;25.48;15.90;;;32.60;92.30;;;;;;5045610;28;20033;-63
2021/12/03 04:54:30;;;;;;;22.25;14.90;;;32.70;93.00;;;;;;5042797;28;20022;-64
2021/12/03 04:56:57;;;;;;;17.50;11.65;;;32.60;91.90;;;;;;5041592;28;20054;-63
2021/12/03 04:59:24;;;;;;;16.00;10.30;;;32.60;91.40;;;;;;5044205;28;20040;-65
2021/12/03 05:01:55;;;;;;;14.98;9.00;;;32.80;91.70;;;;;;5040040;28;20412;-64
2021/12/03 05:04:22;;;;;;;14.63;9.88;;;32.90;88.50;;;;;;5044345;28;20387;-64
2021/12/03 05:09:19;;;;;;;18.42;10.18;;;32.80;89.90;;;;;;5040976;28;20025;-65
2021/12/03 05:11:46;;;;;;;16.60;9.88;;;32.90;88.50;;;;;;5044798;28;20111;-66
2021/12/03 05:14:13;;;;;;;14.00;8.73;;;33.00;86.50;;;;;;5042864;28;20032;-65
2021/12/03 05:16:40;;;;;;;17.58;8.23;;;32.90;85.30;;;;;;5044809;28;20159;-66
2021/12/03 05:19:07;;;;;;;14.70;9.05;;;32.90;84.90;;;;;;5041065;28;20029;-66
2021/12/03 05:21:33;;;;;;;21.23;10.45;;;32.90;85.50;;;;;;5038988;28;20027;-64
2021/12/03 05:24:00;;;;;;;14.85;10.15;;;33.10;86.60;;;;;;5044405;28;20028;-66
2021/12/03 05:26:27;;;;;;;16.77;9.40;;;33.10;86.70;;;;;;5043699;28;20127;-65
2021/12/03 05:28:54;;;;;;;23.27;10.38;;;33.00;85.60;;;;;;5038608;28;20053;-65
2021/12/03 05:31:21;;;;;;;19.63;11.90;;;33.00;87.50;;;;;;5039245;28;20061;-66
2021/12/03 05:33:47;;;;;;;15.23;9.45;;;33.00;84.90;;;;;;5042968;28;20278;-67
2021/12/03 05:36:14;;;;;;;17.85;11.27;;;33.10;85.80;;;;;;5035959;28;20072;-65
2021/12/03 05:38:41;;;;;;;21.73;13.23;;;33.10;87.80;;;;;;5027215;28;20030;-65
2021/12/03 05:41:07;;;;;;;26.10;12.23;;;33.00;87.90;;;;;;5039506;28;20104;-65
2021/12/03 05:43:34;;;;;;;27.42;20.48;;;33.00;86.60;;;;;;5037481;28;20124;-64
2021/12/03 05:46:00;;;;;;;34.03;21.58;;;32.90;87.10;;;;;;5035521;28;20031;-65
2021/12/03 05:48:27;;;;;;;13.70;10.23;;;32.90;86.20;;;;;;5035815;28;20037;-66
2021/12/03 05:50:54;;;;;;;20.60;12.77;;;32.80;85.40;;;;;;5035683;28;20445;-66
2021/12/03 05:53:21;;;;;;;49.08;38.92;;;32.80;85.50;;;;;;5035416;28;20026;-64
2021/12/03 05:55:47;;;;;;;21.55;11.70;;;32.80;86.30;;;;;;5035308;28;20090;-65
2021/12/03 05:58:16;;;;;;;24.58;15.88;;;32.80;86.10;;;;;;5035463;28;20084;-64
2021/12/03 06:00:43;;;;;;;39.40;24.60;;;32.80;87.70;;;;;;5032756;28;20021;-64
2021/12/03 06:03:11;;;;;;;75.68;33.00;;;32.80;88.70;;;;;;5025835;28;20483;-65
2021/12/03 06:05:40;;;;;;;23.65;15.05;;;32.80;87.10;;;;;;5042918;28;20029;-64
2021/12/03 06:08:07;;;;;;;21.85;11.73;;;32.80;86.80;;;;;;5034172;28;20092;-64
2021/12/03 06:10:34;;;;;;;18.38;10.95;;;32.80;86.10;;;;;;5041671;28;20541;-64
2021/12/03 06:13:01;;;;;;;19.20;10.68;;;32.80;85.50;;;;;;5044699;28;20040;-63
2021/12/03 06:15:29;;;;;;;14.60;9.88;;;32.80;85.10;;;;;;5043138;28;20483;-66
2021/12/03 06:17:56;;;;;;;16.65;12.95;;;32.80;84.60;;;;;;5039673;28;20029;-68
2021/12/03 06:20:24;;;;;;;24.40;13.15;;;32.80;84.90;;;;;;5041415;28;20024;-66
2021/12/03 06:22:51;;;;;;;16.92;12.18;;;32.80;85.20;;;;;;5043931;28;20017;-64
2021/12/03 06:25:19;;;;;;;20.10;13.05;;;32.80;85.20;;;;;;5043351;28;20063;-64
2021/12/03 06:27:46;;;;;;;23.77;13.75;;;32.80;85.70;;;;;;5041130;28;20036;-65
2021/12/03 06:30:17;;;;;;;21.33;12.88;;;32.90;86.80;;;;;;5048955;28;20031;-64
2021/12/03 06:32:44;;;;;;;18.02;9.20;;;33.00;87.00;;;;;;5045777;28;20476;-65
2021/12/03 06:35:15;;;;;;;14.63;9.63;;;33.00;83.00;;;;;;5045834;28;20471;-65
2021/12/03 06:37:43;;;;;;;18.65;10.65;;;33.00;81.30;;;;;;5042090;28;20175;-64
2021/12/03 06:40:13;;;;;;;26.23;11.10;;;33.10;83.40;;;;;;5038698;28;20307;-64
2021/12/03 06:42:40;;;;;;;16.08;10.75;;;33.00;84.70;;;;;;5040716;28;20491;-65
2021/12/03 06:45:08;;;;;;;19.00;9.35;;;33.10;84.20;;;;;;5042036;28;20454;-64
2021/12/03 06:47:35;;;;;;;25.90;10.18;;;33.00;83.10;;;;;;5038264;28;20476;-66
2021/12/03 06:50:03;;;;;;;13.57;8.55;;;33.10;83.10;;;;;;5045088;28;20041;-65
2021/12/03 06:52:32;;;;;;;23.92;10.82;;;33.10;85.00;;;;;;5045939;28;20053;-65
2021/12/03 06:55:02;;;;;;;22.92;10.68;;;33.10;84.70;;;;;;5043872;28;20032;-66
2021/12/03 06:57:29;;;;;;;23.23;14.80;;;33.20;83.30;;;;;;5041269;28;20028;-65
2021/12/03 06:59:56;;;;;;;26.50;16.08;;;33.20;83.80;;;;;;5046651;28;20173;-67
2021/12/03 07:02:23;;;;;;;11.95;9.07;;;33.20;84.00;;;;;;5044697;28;20043;-67
2021/12/03 07:04:49;;;;;;;14.48;9.18;;;33.20;80.00;;;;;;5048556;28;20037;-67
2021/12/03 07:07:16;;;;;;;11.63;7.45;;;33.30;79.40;;;;;;5050397;28;20032;-66
2021/12/03 07:09:43;;;;;;;13.18;8.73;;;33.30;79.90;;;;;;5045986;28;20029;-66
2021/12/03 07:12:10;;;;;;;14.18;9.40;;;33.30;80.30;;;;;;5045100;28;20044;-67
2021/12/03 07:14:37;;;;;;;16.48;10.27;;;33.30;81.00;;;;;;5040747;28;20036;-66
2021/12/03 07:17:06;;;;;;;25.42;11.43;;;33.30;79.90;;;;;;5042496;28;20419;-67
2021/12/03 07:19:33;;;;;;;26.73;14.70;;;33.30;79.80;;;;;;5046842;28;20027;-67
2021/12/03 07:22:00;;;;;;;24.48;19.17;;;33.30;81.20;;;;;;5040208;28;20057;-66
2021/12/03 07:24:27;;;;;;;17.98;12.55;;;33.30;81.60;;;;;;5047339;28;20484;-66
2021/12/03 07:26:54;;;;;;;129.63;92.35;;;33.20;80.70;;;;;;5053989;28;20056;-66
2021/12/03 07:29:20;;;;;;;47.90;35.63;;;33.30;82.20;;;;;;5054146;28;20036;-66
2021/12/03 07:31:47;;;;;;;29.90;17.73;;;33.20;80.80;;;;;;5054084;28;20083;-66
2021/12/03 07:34:15;;;;;;;23.80;12.50;;;33.30;81.50;;;;;;5036083;28;20403;-66
2021/12/03 07:36:42;;;;;;;26.35;14.77;;;33.50;79.20;;;;;;5034082;28;20026;-66
2021/12/03 07:39:08;;;;;;;20.83;12.10;;;33.60;78.50;;;;;;5034204;28;20032;-66
2021/12/03 07:41:37;;;;;;;20.85;11.48;;;33.60;78.70;;;;;;5033434;28;20483;-67
2021/12/03 07:44:04;;;;;;;18.05;11.57;;;33.70;75.80;;;;;;5040837;28;20076;-66
2021/12/03 07:46:30;;;;;;;25.45;14.75;;;33.80;76.80;;;;;;5043083;28;20032;-67
2021/12/03 07:48:57;;;;;;;22.50;13.05;;;33.90;75.30;;;;;;5037036;28;20357;-67
2021/12/03 07:51:24;;;;;;;40.78;18.98;;;33.90;75.90;;;;;;5034490;28;20487;-68
2021/12/03 07:53:51;;;;;;;28.45;19.23;;;33.80;78.30;;;;;;5034347;28;20036;-68
2021/12/03 07:56:17;;;;;;;36.10;15.00;;;33.80;78.40;;;;;;5033936;28;20033;-67
2021/12/03 07:58:44;;;;;;;23.70;12.85;;;33.70;78.10;;;;;;5033889;28;20100;-66
2021/12/03 08:01:10;;;;;;;25.23;12.45;;;33.70;78.00;;;;;;5034053;28;20092;-68
2021/12/03 08:03:37;;;;;;;22.35;12.20;;;33.70;77.20;;;;;;5034001;28;20091;-68
2021/12/03 08:06:08;;;;;;;20.17;10.27;;;33.70;77.70;;;;;;5033818;28;20051;-66
2021/12/03 08:08:40;;;;;;;15.98;10.75;;;33.80;77.30;;;;;;5033064;28;20021;-65
2021/12/03 08:11:08;;;;;;;17.13;10.13;;;33.80;77.10;;;;;;5044346;28;20057;-69
2021/12/03 08:13:36;;;;;;;26.50;10.50;;;33.80;76.40;;;;;;5041596;28;20099;-68
2021/12/03 08:16:03;;;;;;;22.33;10.52;;;33.80;76.60;;;;;;5033790;28;20387;-69
2021/12/03 08:18:31;;;;;;;21.70;11.98;;;33.90;77.00;;;;;;5042499;28;20025;-68
2021/12/03 08:20:58;;;;;;;16.30;10.25;;;34.00;77.40;;;;;;5040280;28;20025;-67
2021/12/03 08:23:25;;;;;;;21.33;9.82;;;34.00;75.30;;;;;;5037485;28;20472;-68
2021/12/03 08:25:52;;;;;;;25.00;15.82;;;34.10;74.70;;;;;;5048369;28;20045;-71
2021/12/03 08:28:19;;;;;;;21.83;10.55;;;34.10;74.30;;;;;;5033945;28;20029;-69
2021/12/03 08:30:45;;;;;;;24.00;9.95;;;34.30;74.00;;;;;;5031397;28;20380;-70
2021/12/03 08:33:12;;;;;;;16.83;10.23;;;34.30;73.10;;;;;;5037528;28;20035;-69
2021/12/03 08:35:40;;;;;;;16.42;9.52;;;34.20;73.90;;;;;;5043297;28;20029;-70
2021/12/03 08:38:07;;;;;;;22.45;11.43;;;34.10;73.90;;;;;;5042611;28;20476;-70
2021/12/03 08:40:33;;;;;;;44.55;13.15;;;34.10;72.70;;;;;;5052949;28;20033;-69
2021/12/03 08:43:00;;;;;;;22.33;11.93;;;34.10;73.60;;;;;;5054504;28;20079;-72
2021/12/03 08:45:27;;;;;;;23.05;10.90;;;34.10;73.70;;;;;;5051439;28;20471;-71
2021/12/03 08:47:58;;;;;;;20.85;12.82;;;34.10;73.50;;;;;;5054253;28;20514;-70
2021/12/03 08:50:29;;;;;;;22.80;13.85;;;34.10;74.20;;;;;;5038626;28;20058;-69
2021/12/03 08:53:10;;;;;;;40.22;21.27;;;34.00;74.20;;;;;;5043238;28;20037;-70
2021/12/03 08:55:39;;;;;;;27.33;16.65;;;34.00;76.00;;;;;;5042267;28;20032;-68
2021/12/03 08:58:06;;;;;;;50.63;24.15;;;34.00;75.90;;;;;;5047419;28;20049;-70
2021/12/03 09:00:34;;;;;;;38.28;26.40;;;34.00;74.40;;;;;;5044443;28;20096;-69
2021/12/03 09:03:01;;;;;;;43.90;28.42;;;33.90;73.60;;;;;;5043467;28;20022;-72
2021/12/03 09:05:30;;;;;;;50.85;28.45;;;33.80;72.50;;;;;;5039509;28;20383;-71
2021/12/03 09:07:58;;;;;;;36.70;23.95;;;33.80;73.10;;;;;;5046963;28;20545;-70
2021/12/03 09:10:25;;;;;;;60.53;37.67;;;33.80;73.40;;;;;;5035999;28;20108;-69
2021/12/03 09:12:53;;;;;;;48.10;32.08;;;33.80;73.50;;;;;;5036005;28;20105;-69
2021/12/03 09:15:37;;;;;;;40.20;25.95;;;33.80;73.10;;;;;;5036262;28;20046;-70
2021/12/03 09:20:43;;;;;;;378.27;301.80;;;33.70;73.00;;;;;;5035890;28;20037;-71
2021/12/03 09:23:17;;;;;;;73.10;46.70;;;33.60;72.50;;;;;;5037452;28;20057;-70
2021/12/03 09:25:50;;;;;;;72.07;30.17;;;33.60;72.90;;;;;;5024641;28;20053;-70
2021/12/03 09:28:17;;;;;;;34.58;17.52;;;33.60;75.30;;;;;;5041438;28;20040;-68
2021/12/03 09:30:45;;;;;;;45.78;22.33;;;33.30;80.70;;;;;;5055782;28;20364;-70
2021/12/03 09:33:15;;;;;;;41.13;21.65;;;33.10;83.50;;;;;;5037657;28;20021;-68
2021/12/03 09:35:46;;;;;;;45.85;22.30;;;32.90;84.80;;;;;;5036521;28;20030;-68
2021/12/03 09:38:13;;;;;;;34.55;20.55;;;32.90;86.20;;;;;;5035442;28;20021;-70
2021/12/03 09:40:42;;;;;;;75.47;24.65;;;32.80;87.00;;;;;;5035634;28;20026;-67
2021/12/03 09:43:08;;;;;;;36.83;19.13;;;32.60;88.50;;;;;;5035728;28;20105;-71
2021/12/03 09:45:37;;;;;;;42.00;21.90;;;32.60;89.10;;;;;;5036734;28;20040;-72
2021/12/03 09:50:43;;;;;;;24.90;17.35;;;32.50;90.40;;;;;;5036737;28;20048;-68
2021/12/03 09:55:37;;;;;;;31.63;20.23;;;32.20;90.80;;;;;;5041564;28;20056;-67
2021/12/03 09:58:19;;;;;;;24.65;18.75;;;32.00;91.00;;;;;;5041024;28;20139;-66
2021/12/03 10:00:53;;;;;;;;;;;32.00;91.10;;;;;;5048356;28;20029;-69
2021/12/03 10:18:57;;;;;;;60.40;33.22;;;30.90;90.70;;;;;;5044137;28;20081;-69
2021/12/03 10:27:34;;;;;;;73.47;42.78;;;30.70;91.40;;;;;;5038998;28;20033;-71
2021/12/03 10:40:51;;;;;;;54.92;30.88;;;30.50;91.00;;;;;;5040592;28;20031;-71
2021/12/03 10:46:14;;;;;;;41.88;26.42;;;30.50;90.80;;;;;;5040118;28;20021;-72
2021/12/03 10:48:51;;;;;;;100.25;65.15;;;30.60;90.90;;;;;;5041559;28;20112;-71
2021/12/03 10:51:35;;;;;;;44.15;20.25;;;30.60;91.00;;;;;;5039753;28;20029;-72
2021/12/03 10:54:07;;;;;;;35.08;19.77;;;30.50;91.20;;;;;;5052467;28;20025;-72
2021/12/03 11:50:48;;;;;;;49.17;28.65;;;29.40;99.90;;;;;;5071513;28;20024;-72
2021/12/03 13:20:33;;;;;;;90.75;72.60;;;28.60;99.90;;;;;;5076617;28;20020;-71
2021/12/03 13:26:31;;;;;;;57.97;46.92;;;28.60;99.90;;;;;;5075385;28;20032;-72
2021/12/03 13:29:12;;;;;;;52.42;40.00;;;28.70;99.90;;;;;;5074529;28;20036;-71
2021/12/03 13:35:04;;;;;;;92.63;75.30;;;28.70;99.90;;;;;;5075271;28;20035;-73
2021/12/03 14:20:08;;;;;;;34.95;28.88;;;28.50;99.90;;;;;;5073729;28;20009;-66
2021/12/03 14:40:15;;;;;;;46.92;34.42;;;28.10;99.90;;;;;;5073583;28;20027;-70
2021/12/03 14:45:31;;;;;;;42.35;32.25;;;28.10;99.90;;;;;;5054255;28;20444;-68
2021/12/03 14:53:16;;;;;;;41.35;31.33;;;28.00;99.90;;;;;;5073674;28;20505;-68
2021/12/03 14:55:47;;;;;;;39.67;29.13;;;28.00;99.90;;;;;;5073484;28;20252;-69
2021/12/03 14:58:19;;;;;;;42.45;29.90;;;27.90;99.90;;;;;;5073042;28;20032;-68
2021/12/03 15:00:54;;;;;;;;;;;27.90;99.90;;;;;;5072059;28;20020;-68
2021/12/03 15:03:41;;;;;;;34.90;28.15;;;27.90;99.90;;;;;;5069410;28;19905;-67
2021/12/03 15:32:08;;;;;;;83.60;68.70;;;28.10;99.90;;;;;;5086369;28;20093;-68
2021/12/03 15:37:39;;;;;;;52.40;42.25;;;28.20;99.90;;;;;;5084103;28;20024;-68
2021/12/03 15:40:20;;;;;;;46.92;40.75;;;28.20;99.90;;;;;;5072163;28;20021;-65
2021/12/03 16:03:30;;;;;;;41.72;34.45;;;28.20;99.90;;;;;;5070150;28;20020;-67
2021/12/03 16:17:09;;;;;;;46.55;35.05;;;28.10;99.90;;;;;;5072799;28;20024;-66
2021/12/03 16:53:27;;;;;;;43.45;35.67;;;28.00;99.90;;;;;;5071976;28;20036;-66
2021/12/03 16:56:06;;;;;;;37.88;33.58;;;27.90;99.90;;;;;;5072715;28;20028;-65
2021/12/03 16:58:35;;;;;;;41.40;34.78;;;27.90;99.90;;;;;;5056593;28;20031;-64
2021/12/03 17:01:09;;;;;;;44.33;34.35;;;27.90;99.90;;;;;;5072518;28;20078;-65
2021/12/03 17:45:32;;;;;;;49.67;44.38;;;27.70;99.90;;;;;;5075405;28;20488;-67
2021/12/03 17:58:24;;;;;;;47.20;38.80;;;27.60;99.90;;;;;;5075477;28;20021;-67
2021/12/03 18:08:48;;;;;;;41.90;37.42;;;27.70;99.90;;;;;;5074946;28;20048;-67
2021/12/03 18:45:42;;;;;;;80.78;64.05;;;27.50;99.90;;;;;;5073490;28;20107;-65
2021/12/03 18:56:08;;;;;;;78.65;69.65;;;27.50;99.90;;;;;;5073186;28;20071;-67
2021/12/03 18:58:36;;;;;;;77.68;69.00;;;27.50;99.90;;;;;;5073066;28;20391;-66
2021/12/03 19:01:03;;;;;;;69.28;61.47;;;27.40;99.90;;;;;;5073607;28;20024;-65
2021/12/03 19:06:19;;;;;;;70.22;60.78;;;27.40;99.90;;;;;;5073074;28;20035;-67
2021/12/03 19:09:02;;;;;;;70.63;54.28;;;27.40;99.90;;;;;;5053093;28;20479;-66
2021/12/03 19:14:02;;;;;;;58.97;50.88;;;27.50;99.90;;;;;;4985245;28;2353637;-67
2021/12/03 19:16:30;;;;;;;53.17;46.33;;;27.40;99.90;;;;;;5073853;28;20033;-66
2021/12/03 19:18:59;;;;;;;55.55;47.50;;;27.40;99.90;;;;;;5072577;28;20379;-67
2021/12/03 19:21:28;;;;;;;54.33;48.17;;;27.30;99.90;;;;;;5073565;28;20105;-66
2021/12/03 19:23:58;;;;;;;59.22;45.63;;;27.30;99.90;;;;;;5073289;28;20403;-64
2021/12/03 19:26:27;;;;;;;51.70;44.38;;;27.20;99.90;;;;;;5063886;28;20029;-66
2021/12/03 19:28:55;;;;;;;59.58;43.08;;;27.20;99.90;;;;;;5073104;28;20063;-66
2021/12/03 19:31:24;;;;;;;52.88;40.95;;;27.20;99.90;;;;;;5073117;28;20485;-65
2021/12/03 19:33:51;;;;;;;51.65;42.10;;;27.20;99.90;;;;;;5072922;28;20028;-65
2021/12/03 19:36:22;;;;;;;50.88;40.15;;;27.20;99.90;;;;;;5070204;28;20016;-66
2021/12/03 19:38:52;;;;;;;49.03;40.10;;;27.20;99.90;;;;;;5072875;28;20040;-67
2021/12/03 19:41:30;;;;;;;46.80;40.35;;;27.20;99.90;;;;;;5070842;28;20028;-67
2021/12/03 19:44:01;;;;;;;50.90;39.33;;;27.20;99.90;;;;;;5073573;28;20028;-65
2021/12/03 19:46:31;;;;;;;52.70;40.38;;;27.20;99.90;;;;;;5072904;28;20403;-65
2021/12/03 19:51:46;;;;;;;50.75;41.35;;;27.10;99.90;;;;;;5073277;28;20059;-65
2021/12/03 19:54:14;;;;;;;51.13;38.55;;;27.10;99.90;;;;;;5073525;28;20066;-65
2021/12/03 19:56:41;;;;;;;45.45;37.30;;;27.00;99.90;;;;;;5073072;28;20055;-64
2021/12/03 19:59:08;;;;;;;50.42;40.17;;;27.00;99.90;;;;;;5073516;28;20021;-64
2021/12/03 20:01:36;;;;;;;47.72;38.67;;;27.00;99.90;;;;;;5073153;28;20025;-64
2021/12/03 20:04:05;;;;;;;47.45;36.60;;;27.00;99.90;;;;;;5073394;28;20060;-64
2021/12/03 20:06:32;;;;;;;48.03;38.78;;;27.10;99.90;;;;;;5073363;28;20029;-65
2021/12/03 20:09:01;;;;;;;44.60;36.38;;;27.10;99.90;;;;;;5073440;28;20041;-64
2021/12/03 20:11:38;;;;;;;44.83;35.20;;;27.10;99.90;;;;;;5073610;28;20415;-65
2021/12/03 20:14:07;;;;;;;44.95;34.15;;;27.10;99.90;;;;;;5073226;28;20411;-64
2021/12/03 20:19:20;;;;;;;41.30;31.80;;;27.20;99.90;;;;;;5072853;28;20042;-63
2021/12/03 20:21:53;;;;;;;41.80;32.78;;;27.10;99.90;;;;;;5072703;28;20024;-69
2021/12/03 20:24:31;;;;;;;34.40;30.35;;;27.10;99.90;;;;;;5073186;28;20032;-66